Time;durP1;ratioP1;P1;durP2;ratioP2;P2;SDS_P1;SDS_P2;PMS_P1;PMS_P2;Temp;Humidity;BMP_temperature;BMP_pressure;BME280_temperature;BME280_humidity;BME280_pressure;Samples;Min_cycle;Max_cycle;Signal;HPM_P1;HPM_P2
2024/03/10 00:00:44;;;;;;;17.80;14.10;;;;;;;6.16;100.00;96974.03;1225824;75;2921082;-64
2024/03/10 00:03:19;;;;;;;26.20;19.60;;;;;;;5.93;100.00;96975.47;1225190;75;2888885;-64
2024/03/10 00:05:52;;;;;;;26.40;20.60;;;;;;;6.03;100.00;96970.78;1224860;75;2914794;-66
2024/03/10 00:08:25;;;;;;;21.70;17.00;;;;;;;6.20;100.00;96966.44;1224915;75;2921226;-64
2024/03/10 00:10:58;;;;;;;19.00;15.35;;;;;;;6.15;100.00;96972.50;1225350;75;2910021;-67
2024/03/10 00:13:31;;;;;;;17.50;13.15;;;;;;;6.15;100.00;96969.78;1224708;75;2909074;-66
2024/03/10 00:16:04;;;;;;;18.30;13.35;;;;;;;5.89;100.00;96974.88;1224855;75;2928046;-63
2024/03/10 00:18:39;;;;;;;21.55;15.50;;;;;;;5.80;100.00;96969.50;1224357;75;2921828;-66
2024/03/10 00:21:12;;;;;;;20.75;16.15;;;;;;;5.83;100.00;96961.19;1225215;75;2917794;-65
2024/03/10 00:23:45;;;;;;;18.60;14.80;;;;;;;5.85;100.00;96956.06;1224473;75;2916019;-62
2024/03/10 00:26:18;;;;;;;20.45;15.80;;;;;;;5.76;100.00;96959.56;1224523;75;2890232;-64
2024/03/10 00:28:51;;;;;;;20.55;15.10;;;;;;;5.78;100.00;96952.94;1223530;75;2937552;-66
2024/03/10 00:31:24;;;;;;;18.30;13.95;;;;;;;5.88;100.00;96954.38;1224034;75;2949164;-63
2024/03/10 00:34:00;;;;;;;19.30;13.60;;;;;;;5.79;100.00;96959.84;1224883;75;2916802;-64
2024/03/10 00:36:33;;;;;;;15.55;11.75;;;;;;;5.76;100.00;96956.84;1224826;75;2917005;-65
2024/03/10 00:39:06;;;;;;;17.15;14.15;;;;;;;5.67;100.00;96954.16;1223066;75;2921180;-66
2024/03/10 00:41:39;;;;;;;26.65;20.00;;;;;;;5.53;100.00;96952.13;1224924;75;2918698;-64
2024/03/10 00:44:12;;;;;;;28.55;20.70;;;;;;;5.67;100.00;96951.44;1224096;75;2912946;-64
2024/03/10 00:46:45;;;;;;;22.20;16.95;;;;;;;5.76;100.00;96947.94;1225255;75;2921249;-67
2024/03/10 00:49:21;;;;;;;20.15;15.20;;;;;;;5.79;100.00;96951.72;1225334;75;2911278;-67
2024/03/10 00:51:53;;;;;;;19.85;15.50;;;;;;;5.60;100.00;96942.88;1224982;75;2935615;-65
2024/03/10 00:54:26;;;;;;;26.65;19.35;;;;;;;5.48;100.00;96936.44;1225013;75;2888628;-66
2024/03/10 00:56:59;;;;;;;25.55;19.05;;;;;;;5.70;100.00;96930.78;1224683;75;2917307;-64
2024/03/10 00:59:32;;;;;;;18.75;15.05;;;;;;;5.67;100.00;96920.84;1225242;75;2919555;-64
2024/03/10 01:02:05;;;;;;;17.00;13.00;;;;;;;5.60;100.00;96919.19;1225047;75;2919014;-64
2024/03/10 01:04:41;;;;;;;21.40;16.50;;;;;;;5.38;100.00;96910.56;1224380;75;2913297;-64
2024/03/10 01:07:14;;;;;;;26.70;19.30;;;;;;;5.40;100.00;96911.59;1225199;75;2925180;-63
2024/03/10 01:09:47;;;;;;;28.05;21.55;;;;;;;5.32;100.00;96911.19;1225334;75;2915069;-64
2024/03/10 01:12:21;;;;;;;31.55;22.85;;;;;;;5.27;100.00;96909.09;1224666;75;2912284;-64
2024/03/10 01:14:54;;;;;;;26.65;20.00;;;;;;;5.50;100.00;96920.47;1224974;75;2919618;-63
2024/03/10 01:17:27;;;;;;;32.00;24.00;;;;;;;5.18;100.00;96914.56;1209377;75;4058189;-64
2024/03/10 01:20:03;;;;;;;30.85;23.75;;;;;;;5.50;100.00;96904.19;1224746;75;2919752;-66
2024/03/10 01:22:37;;;;;;;25.80;19.65;;;;;;;5.61;100.00;96900.97;1224674;75;2915984;-65
2024/03/10 01:25:11;;;;;;;19.95;16.00;;;;;;;5.66;100.00;96900.34;1225525;75;2914382;-64
2024/03/10 01:27:44;;;;;;;19.95;15.85;;;;;;;5.61;100.00;96907.16;1224684;75;2920230;-65
2024/03/10 01:30:18;;;;;;;16.95;13.45;;;;;;;5.76;100.00;96896.34;1224456;75;2919477;-64
2024/03/10 01:32:51;;;;;;;20.50;15.90;;;;;;;5.51;100.00;96892.88;1225225;75;2913411;-66
2024/03/10 01:35:27;;;;;;;25.45;19.90;;;;;;;5.62;100.00;96905.19;1225016;75;2918401;-63
2024/03/10 01:38:00;;;;;;;23.50;16.90;;;;;;;5.61;100.00;96888.13;1225261;75;2918059;-66
2024/03/10 01:40:32;;;;;;;29.60;23.10;;;;;;;5.43;100.00;96886.25;1224738;75;2919627;-66
2024/03/10 01:43:06;;;;;;;40.30;32.05;;;;;;;5.37;100.00;96881.94;1225088;75;2930616;-64
2024/03/10 01:45:39;;;;;;;33.15;25.65;;;;;;;5.56;100.00;96869.78;1225661;75;2911935;-65
2024/03/10 01:48:12;;;;;;;26.10;21.40;;;;;;;5.64;100.00;96875.59;1225665;75;2917180;-64
2024/03/10 01:50:48;;;;;;;23.75;18.90;;;;;;;5.73;100.00;96870.88;1225543;75;2914213;-66
2024/03/10 01:53:21;;;;;;;22.15;18.25;;;;;;;5.72;100.00;96871.31;1224682;75;2918265;-62
2024/03/10 01:55:54;;;;;;;28.10;21.10;;;;;;;5.51;100.00;96870.41;1225148;75;2915750;-64
2024/03/10 01:58:28;;;;;;;22.75;17.95;;;;;;;5.71;100.00;96872.53;1225544;75;2923408;-62
2024/03/10 02:01:03;;;;;;;21.30;16.80;;;;;;;5.76;100.00;96877.34;1225914;75;2916316;-65
2024/03/10 02:03:36;;;;;;;16.50;13.55;;;;;;;5.76;100.00;96866.47;1225172;75;2912332;-65
2024/03/10 02:06:12;;;;;;;22.25;17.35;;;;;;;5.53;100.00;96867.97;1224594;75;2948651;-64
2024/03/10 02:08:46;;;;;;;16.65;13.95;;;;;;;5.76;100.00;96875.38;1224804;75;2919007;-63
2024/03/10 02:11:20;;;;;;;16.75;13.45;;;;;;;5.87;100.00;96872.16;1225185;75;2921477;-64
2024/03/10 02:13:52;;;;;;;16.40;12.05;;;;;;;5.83;100.00;96866.13;1225391;75;2912146;-65
2024/03/10 02:16:26;;;;;;;14.85;11.75;;;;;;;5.79;100.00;96860.13;1224494;75;2916198;-64
2024/03/10 02:18:59;;;;;;;15.55;12.40;;;;;;;5.85;100.00;96855.56;1224796;75;2933051;-63
2024/03/10 02:21:34;;;;;;;13.70;10.60;;;;;;;5.95;100.00;96850.84;1225611;75;2922482;-67
2024/03/10 02:24:16;;;;;;;12.80;10.50;;;;;;;5.93;100.00;96853.97;1225265;75;2926914;-63
2024/03/10 02:26:52;;;;;;;12.40;10.25;;;;;;;5.91;100.00;96850.97;1225527;75;2908580;-62
2024/03/10 02:29:26;;;;;;;15.50;11.65;;;;;;;5.74;100.00;96850.63;1224439;75;2976857;-65
2024/03/10 02:48:48;;;;;;;18.45;14.00;;;;;;;5.78;100.00;96831.47;1225567;75;2909523;-66
2024/03/10 02:51:21;;;;;;;21.35;15.35;;;;;;;5.72;100.00;96830.59;1225412;75;2907967;-64
2024/03/10 02:53:54;;;;;;;20.00;14.95;;;;;;;5.71;100.00;96824.41;1224941;75;2915151;-64
2024/03/10 02:56:27;;;;;;;23.55;17.20;;;;;;;5.66;100.00;96832.47;1223775;75;2916059;-64
2024/03/10 02:59:03;;;;;;;20.30;15.80;;;;;;;5.75;100.00;96826.97;1225537;75;2916412;-66
2024/03/10 03:01:40;;;;;;;17.95;13.80;;;;;;;5.73;100.00;96822.00;1224857;75;2910669;-65
2024/03/10 03:04:13;;;;;;;22.10;16.00;;;;;;;5.64;100.00;96819.34;1224608;75;2921066;-65
2024/03/10 03:06:46;;;;;;;25.00;17.85;;;;;;;5.70;100.00;96817.50;1224355;75;2932514;-66
2024/03/10 03:09:20;;;;;;;19.10;14.50;;;;;;;5.83;100.00;96813.78;1225832;75;2862972;-64
2024/03/10 03:11:53;;;;;;;16.30;12.60;;;;;;;5.93;100.00;96810.50;1224926;75;2921988;-63
2024/03/10 03:14:29;;;;;;;17.50;12.75;;;;;;;5.81;100.00;96805.34;1225422;75;2917099;-62
2024/03/10 03:17:05;;;;;;;16.10;11.85;;;;;;;5.85;100.00;96797.78;1225552;75;2915783;-63
2024/03/10 03:19:38;;;;;;;15.95;11.60;;;;;;;5.93;100.00;96783.34;1225498;75;2924703;-64
2024/03/10 03:22:10;;;;;;;13.15;10.00;;;;;;;5.97;100.00;96791.38;1225452;75;2910610;-65
2024/03/10 03:24:43;;;;;;;14.50;10.30;;;;;;;5.88;100.00;96802.28;1224490;75;2916277;-63
2024/03/10 03:27:16;;;;;;;16.30;11.90;;;;;;;5.87;100.00;96798.03;1223926;75;2918367;-64
2024/03/10 03:29:52;;;;;;;16.65;12.35;;;;;;;5.73;100.00;96794.09;1225121;75;2923712;-65
2024/03/10 03:32:25;;;;;;;18.70;13.05;;;;;;;5.82;100.00;96809.56;1224094;75;2915535;-64
2024/03/10 03:34:58;;;;;;;16.85;11.70;;;;;;;5.90;100.00;96806.03;1225266;75;2912597;-66
2024/03/10 03:37:32;;;;;;;24.80;16.90;;;;;;;5.39;100.00;96801.56;1224017;75;2912598;-64
2024/03/10 03:40:07;;;;;;;27.40;18.95;;;;;;;5.47;100.00;96810.09;1224893;75;2904205;-65
2024/03/10 03:42:40;;;;;;;26.35;18.15;;;;;;;5.46;100.00;96795.00;1225578;75;2910653;-65
2024/03/10 03:45:16;;;;;;;23.60;17.50;;;;;;;5.56;100.00;96801.91;1224807;75;2914064;-64
2024/03/10 03:47:49;;;;;;;27.25;19.20;;;;;;;5.34;100.00;96804.91;1225696;75;2912676;-63
2024/03/10 03:50:23;;;;;;;23.50;16.60;;;;;;;5.55;100.00;96809.28;1224945;75;2918259;-64
2024/03/10 03:52:56;;;;;;;17.95;13.05;;;;;;;5.72;100.00;96798.78;1225382;75;2917825;-64
2024/03/10 03:55:29;;;;;;;17.60;12.80;;;;;;;5.78;100.00;96793.44;1225395;75;2916673;-64
2024/03/10 03:58:01;;;;;;;15.40;11.05;;;;;;;5.81;100.00;96794.47;1225342;75;2917298;-64
2024/03/10 04:00:37;;;;;;;19.65;12.10;;;;;;;5.62;100.00;96799.28;1224998;75;2917129;-64
2024/03/10 04:03:10;;;;;;;29.85;20.35;;;;;;;5.40;100.00;96803.03;1225634;75;2917725;-65
2024/03/10 04:05:43;;;;;;;35.90;24.80;;;;;;;5.26;100.00;96798.31;1224937;75;2929440;-63
2024/03/10 04:08:16;;;;;;;30.55;20.40;;;;;;;5.51;100.00;96806.00;1225172;75;2913256;-66
2024/03/10 04:10:50;;;;;;;23.50;16.85;;;;;;;5.60;100.00;96804.44;1225798;75;2917335;-64
2024/03/10 04:13:24;;;;;;;22.40;16.20;;;;;;;5.63;100.00;96796.13;1224446;75;2909608;-65
2024/03/10 04:15:59;;;;;;;25.05;17.00;;;;;;;5.68;100.00;96794.72;1225133;75;2924976;-65
2024/03/10 04:18:34;;;;;;;27.35;17.90;;;;;;;5.49;100.00;96789.41;1225303;75;2913676;-64
2024/03/10 04:21:08;;;;;;;38.35;24.65;;;;;;;5.05;100.00;96779.13;1224857;75;2916114;-64
2024/03/10 04:23:40;;;;;;;33.05;23.00;;;;;;;5.13;100.00;96769.44;1225581;75;2919317;-67
2024/03/10 04:26:13;;;;;;;28.20;20.20;;;;;;;5.15;100.00;96766.25;1225273;75;2942143;-64
2024/03/10 04:28:46;;;;;;;22.00;16.25;;;;;;;5.37;100.00;96770.66;1224576;75;2920030;-64
2024/03/10 04:31:23;;;;;;;18.25;14.20;;;;;;;5.47;100.00;96763.94;1224513;75;2920645;-65
2024/03/10 04:33:56;;;;;;;26.80;19.45;;;;;;;5.18;100.00;96764.59;1223295;75;2923287;-63
2024/03/10 04:36:29;;;;;;;27.70;20.35;;;;;;;5.16;100.00;96767.75;1224793;75;2921028;-65
2024/03/10 04:39:02;;;;;;;31.90;22.00;;;;;;;4.99;100.00;96766.66;1225455;75;2911745;-64
2024/03/10 04:41:35;;;;;;;30.60;21.15;;;;;;;5.01;100.00;96766.94;1225385;75;2915164;-64
2024/03/10 04:44:08;;;;;;;26.35;19.25;;;;;;;5.17;100.00;96771.22;1225623;75;2911594;-66
2024/03/10 04:46:43;;;;;;;25.90;18.35;;;;;;;5.10;100.00;96764.19;1224935;75;2915457;-64
2024/03/10 04:49:17;;;;;;;22.70;17.50;;;;;;;4.95;100.00;96766.81;1224015;83;2961388;-63
2024/03/10 04:51:50;;;;;;;25.40;18.90;;;;;;;4.84;100.00;96753.00;1225043;75;2918393;-63
2024/03/10 04:54:23;;;;;;;25.15;18.80;;;;;;;4.90;100.00;96753.88;1224668;75;2915209;-63
2024/03/10 04:56:56;;;;;;;25.90;18.65;;;;;;;4.91;100.00;96763.53;1225033;75;2920850;-64
2024/03/10 04:59:29;;;;;;;25.85;19.90;;;;;;;4.75;100.00;96751.06;1225037;75;2924295;-61
2024/03/10 05:02:05;;;;;;;23.85;18.40;;;;;;;4.91;100.00;96756.13;1225445;75;2927497;-64
2024/03/10 05:04:38;;;;;;;23.00;16.45;;;;;;;4.97;100.00;96755.50;1225794;75;2910508;-64
2024/03/10 05:07:10;;;;;;;26.05;16.80;;;;;;;4.90;100.00;96735.63;1225217;75;2916210;-64
2024/03/10 05:09:44;;;;;;;19.10;14.50;;;;;;;5.13;100.00;96744.28;1224373;75;2921383;-64
2024/03/10 05:12:16;;;;;;;22.00;16.70;;;;;;;5.05;100.00;96745.81;1224417;75;2917315;-65
2024/03/10 05:14:50;;;;;;;22.75;16.50;;;;;;;5.09;100.00;96746.41;1225614;75;2915134;-63
2024/03/10 05:17:26;;;;;;;22.70;17.20;;;;;;;5.05;100.00;96748.50;1225653;75;2920467;-64
2024/03/10 05:19:59;;;;;;;34.15;21.70;;;;;;;4.63;100.00;96744.66;1225565;75;2917674;-66
2024/03/10 05:22:34;;;;;;;31.35;22.90;;;;;;;4.75;100.00;96751.06;1224988;75;2913371;-63
2024/03/10 05:25:10;;;;;;;26.15;19.75;;;;;;;4.81;100.00;96743.06;1225258;75;2916727;-64
2024/03/10 05:27:45;;;;;;;21.30;16.15;;;;;;;5.07;100.00;96744.13;1225784;75;2927361;-63
2024/03/10 05:30:18;;;;;;;17.95;13.50;;;;;;;5.13;100.00;96739.59;1226368;75;2915838;-63
2024/03/10 05:32:53;;;;;;;24.35;17.40;;;;;;;4.86;100.00;96737.78;1226118;75;2918008;-64
2024/03/10 05:35:26;;;;;;;30.55;21.25;;;;;;;4.73;100.00;96736.47;1225311;75;2917173;-64
2024/03/10 05:37:59;;;;;;;32.65;22.50;;;;;;;4.64;100.00;96740.75;1224561;75;2913859;-63
2024/03/10 05:40:32;;;;;;;28.45;21.60;;;;;;;4.69;100.00;96734.69;1224206;75;2921269;-64
2024/03/10 05:43:05;;;;;;;21.95;16.65;;;;;;;5.15;100.00;96738.38;1224965;75;2913567;-65
2024/03/10 05:45:38;;;;;;;18.80;13.65;;;;;;;5.13;100.00;96741.56;1225918;75;2916065;-62
2024/03/10 05:48:15;;;;;;;22.25;16.40;;;;;;;5.02;100.00;96738.59;1224443;75;2918845;-64
2024/03/10 05:50:48;;;;;;;22.45;17.25;;;;;;;4.94;100.00;96737.44;1225151;75;2917766;-63
2024/03/10 05:53:21;;;;;;;22.80;16.65;;;;;;;4.98;100.00;96732.59;1224685;75;2920841;-64
2024/03/10 05:55:54;;;;;;;17.20;13.80;;;;;;;5.21;100.00;96745.41;1224432;75;2917415;-66
2024/03/10 05:58:28;;;;;;;27.85;19.65;;;;;;;4.84;100.00;96734.03;1225308;75;2915830;-68
2024/03/10 06:01:01;;;;;;;18.75;14.20;;;;;;;5.19;100.00;96741.66;1224738;75;2911010;-65
2024/03/10 06:03:36;;;;;;;23.05;16.50;;;;;;;5.01;100.00;96731.69;1224279;75;2916481;-62
2024/03/10 06:06:10;;;;;;;21.10;16.10;;;;;;;5.03;100.00;96743.56;1224731;75;2916783;-62
2024/03/10 06:08:43;;;;;;;26.00;18.30;;;;;;;4.99;100.00;96734.09;1225096;75;2916638;-64
2024/03/10 06:11:18;;;;;;;19.45;14.80;;;;;;;5.19;100.00;96731.56;1225051;75;2919052;-65
2024/03/10 06:13:51;;;;;;;15.00;11.75;;;;;;;5.31;100.00;96732.53;1223678;75;2913455;-66
2024/03/10 06:16:23;;;;;;;17.65;13.95;;;;;;;5.24;100.00;96735.59;1224691;75;2923557;-63
2024/03/10 06:27:15;;;;;;;31.05;21.70;;;;;;;4.98;100.00;96738.78;1224337;75;2927459;-63
2024/03/10 06:29:48;;;;;;;27.10;19.55;;;;;;;5.29;100.00;96741.16;1224742;75;2918241;-64
2024/03/10 06:32:21;;;;;;;20.60;15.60;;;;;;;5.35;100.00;96749.41;1225076;67;2926062;-63
2024/03/10 06:34:57;;;;;;;23.55;16.70;;;;;;;5.42;100.00;96753.75;1224566;75;2924317;-65
2024/03/10 06:37:29;;;;;;;21.90;15.60;;;;;;;5.48;100.00;96749.94;1224601;75;2916489;-64
2024/03/10 06:40:03;;;;;;;29.40;19.55;;;;;;;5.31;100.00;96740.69;1224368;75;2918187;-64
2024/03/10 06:42:36;;;;;;;25.05;17.90;;;;;;;5.64;100.00;96734.41;1224452;75;2918904;-65
2024/03/10 06:45:10;;;;;;;19.45;13.65;;;;;;;5.58;100.00;96741.69;1225056;75;2916138;-66
2024/03/10 06:47:44;;;;;;;17.75;12.55;;;;;;;5.78;100.00;96732.97;1224639;75;2918668;-66
2024/03/10 06:50:19;;;;;;;13.95;10.55;;;;;;;5.90;100.00;96740.09;1224372;75;2920817;-63
2024/03/10 06:52:52;;;;;;;31.95;20.50;;;;;;;5.58;100.00;96738.97;1224317;75;2912275;-65
2024/03/10 06:55:26;;;;;;;28.75;18.40;;;;;;;5.64;100.00;96737.13;1224880;75;2913891;-65
2024/03/10 06:57:58;;;;;;;24.60;17.20;;;;;;;5.79;100.00;96737.91;1225270;75;2916199;-64
2024/03/10 07:00:32;;;;;;;24.20;17.15;;;;;;;5.88;100.00;96729.69;1225090;75;2935040;-65
2024/03/10 07:03:05;;;;;;;21.50;14.90;;;;;;;6.16;100.00;96734.91;1224695;75;2918760;-64
2024/03/10 07:05:41;;;;;;;18.95;13.55;;;;;;;6.22;100.00;96738.44;1224603;75;2914513;-63
2024/03/10 07:08:15;;;;;;;19.25;13.75;;;;;;;6.03;100.00;96734.41;1224615;75;2918095;-64
2024/03/10 07:10:48;;;;;;;21.55;14.75;;;;;;;5.98;100.00;96744.69;1224542;75;2912438;-64
2024/03/10 07:13:21;;;;;;;17.70;13.00;;;;;;;6.21;100.00;96741.66;1224701;75;2915184;-64
2024/03/10 07:15:54;;;;;;;23.30;16.70;;;;;;;5.96;100.00;96738.22;1224517;75;2916230;-65
2024/03/10 07:18:27;;;;;;;21.95;15.05;;;;;;;6.09;100.00;96746.13;1224920;75;2919419;-64
2024/03/10 07:21:02;;;;;;;16.35;11.70;;;;;;;6.15;100.00;96733.38;1224838;75;2919073;-67
2024/03/10 07:23:35;;;;;;;20.95;14.70;;;;;;;5.81;100.00;96740.16;1224339;75;2926165;-64
2024/03/10 07:26:08;;;;;;;15.65;12.05;;;;;;;6.21;100.00;96736.22;1225203;75;2919861;-63
2024/03/10 07:28:41;;;;;;;15.50;10.90;;;;;;;6.36;100.00;96726.81;1225241;75;2920530;-66
2024/03/10 07:31:14;;;;;;;13.10;9.25;;;;;;;6.34;100.00;96729.25;1224732;67;2914739;-65
2024/03/10 07:33:47;;;;;;;10.20;7.85;;;;;;;6.35;100.00;96713.69;1195533;75;5139414;-65
2024/03/10 07:36:22;;;;;;;13.25;9.50;;;;;;;6.45;100.00;96714.34;1224328;75;2919201;-62
2024/03/10 07:38:56;;;;;;;16.90;11.05;;;;;;;6.18;100.00;96714.19;1223957;75;2922285;-63
2024/03/10 07:41:32;;;;;;;15.40;11.45;;;;;;;6.32;100.00;96728.97;1224588;75;2852477;-63
2024/03/10 07:44:06;;;;;;;14.65;10.70;;;;;;;6.66;100.00;96718.59;1223318;75;2921596;-62
2024/03/10 07:46:39;;;;;;;17.70;12.45;;;;;;;6.49;100.00;96720.34;1224650;75;2915639;-63
2024/03/10 07:49:12;;;;;;;21.15;14.90;;;;;;;6.57;100.00;96721.47;1225137;75;2912215;-65
2024/03/10 07:51:47;;;;;;;20.50;14.05;;;;;;;6.61;100.00;96714.63;1224508;75;2918082;-64
2024/03/10 07:54:21;;;;;;;24.20;16.15;;;;;;;6.40;100.00;96711.06;1224697;75;2923313;-64
2024/03/10 07:56:54;;;;;;;21.10;14.90;;;;;;;6.50;100.00;96708.25;1224739;75;2920155;-63
2024/03/10 07:59:26;;;;;;;23.30;16.95;;;;;;;6.32;100.00;96706.47;1221394;75;2917872;-65
2024/03/10 08:02:04;;;;;;;23.05;15.75;;;;;;;6.06;100.00;96717.16;1224518;75;2913462;-66
2024/03/10 08:04:38;;;;;;;21.60;14.30;;;;;;;6.31;100.00;96713.88;1224776;75;2925119;-64
2024/03/10 08:07:13;;;;;;;18.45;13.65;;;;;;;6.58;100.00;96710.09;1225591;75;2924130;-66
2024/03/10 08:09:47;;;;;;;17.55;12.00;;;;;;;6.87;100.00;96707.78;1224544;75;2910786;-64
2024/03/10 08:12:21;;;;;;;19.25;12.90;;;;;;;6.76;100.00;96697.50;1217733;75;3192523;-66
2024/03/10 08:14:54;;;;;;;24.25;17.15;;;;;;;6.48;100.00;96699.81;1224639;75;2923871;-64
2024/03/10 08:17:27;;;;;;;26.80;18.60;;;;;;;6.26;100.00;96702.94;1219950;75;2963007;-65
2024/03/10 08:20:00;;;;;;;27.95;18.20;;;;;;;6.21;100.00;96709.03;1221572;75;2917524;-64
2024/03/10 08:22:35;;;;;;;24.70;17.20;;;;;;;6.45;100.00;96698.78;1220960;75;2939366;-64
2024/03/10 08:25:09;;;;;;;23.95;17.40;;;;;;;6.39;100.00;96690.53;1222319;75;2923294;-63
2024/03/10 08:27:43;;;;;;;28.50;20.60;;;;;;;6.18;100.00;96707.97;1221724;75;2939161;-66
2024/03/10 08:30:16;;;;;;;24.75;16.75;;;;;;;6.91;100.00;96705.63;1223254;75;2916310;-65
2024/03/10 08:32:49;;;;;;;15.90;12.65;;;;;;;7.30;100.00;96700.66;1224384;75;2915879;-64
2024/03/10 08:35:24;;;;;;;22.25;16.30;;;;;;;7.14;100.00;96699.22;1224376;75;2925017;-64
2024/03/10 08:37:59;;;;;;;21.65;16.00;;;;;;;6.93;100.00;96695.75;1224220;83;2927316;-65
2024/03/10 08:40:34;;;;;;;20.35;14.95;;;;;;;7.29;100.00;96682.84;1222656;75;2942466;-67
2024/03/10 08:43:07;;;;;;;21.25;15.50;;;;;;;7.12;100.00;96687.31;1224001;75;2922586;-63
2024/03/10 08:45:40;;;;;;;20.05;15.40;;;;;;;6.92;100.00;96691.53;1224453;75;2916535;-65
2024/03/10 08:48:13;;;;;;;20.80;15.25;;;;;;;7.28;100.00;96681.34;1224569;75;2926814;-64
2024/03/10 08:50:46;;;;;;;19.95;14.55;;;;;;;7.22;100.00;96681.28;1224796;75;2928035;-66
2024/03/10 08:53:22;;;;;;;22.00;16.30;;;;;;;7.47;100.00;96682.53;1225453;67;2891303;-65
2024/03/10 08:55:55;;;;;;;20.60;14.65;;;;;;;7.73;100.00;96683.81;1224460;75;2926303;-66
2024/03/10 08:58:28;;;;;;;21.50;16.40;;;;;;;7.90;100.00;96673.81;1223975;75;2919457;-65
2024/03/10 09:01:03;;;;;;;22.45;15.55;;;;;;;8.03;100.00;96684.34;1224600;75;2915981;-63
2024/03/10 09:03:36;;;;;;;22.60;16.15;;;;;;;7.89;100.00;96688.69;1223180;75;2928144;-64
2024/03/10 09:06:10;;;;;;;18.35;13.65;;;;;;;8.39;100.00;96688.34;1224925;75;2923297;-63
2024/03/10 09:08:46;;;;;;;18.30;13.35;;;;;;;8.28;100.00;96680.84;1224817;75;2926312;-64
2024/03/10 09:11:19;;;;;;;19.00;13.85;;;;;;;7.71;100.00;96680.81;1224949;75;2915401;-63
2024/03/10 09:13:51;;;;;;;15.85;11.95;;;;;;;8.29;100.00;96682.31;1224556;75;2916985;-65
2024/03/10 09:16:24;;;;;;;21.85;15.25;;;;;;;8.07;100.00;96668.53;1224645;75;2919443;-64
2024/03/10 09:18:57;;;;;;;20.35;14.40;;;;;;;8.40;100.00;96659.16;1223646;75;2922600;-66
2024/03/10 09:21:30;;;;;;;19.90;14.25;;;;;;;8.83;100.00;96657.19;1223566;75;2916595;-64
2024/03/10 09:24:06;;;;;;;19.70;14.65;;;;;;;9.51;100.00;96655.47;1223335;75;2934790;-64
2024/03/10 09:26:39;;;;;;;18.55;13.40;;;;;;;10.27;100.00;96664.00;1221534;75;2938340;-65
2024/03/10 09:29:14;;;;;;;16.55;12.05;;;;;;;10.49;100.00;96661.28;1223665;75;2917583;-65
2024/03/10 09:31:48;;;;;;;19.10;13.75;;;;;;;10.72;100.00;96653.78;1223153;75;2924242;-64
2024/03/10 09:34:21;;;;;;;18.05;12.90;;;;;;;10.58;100.00;96649.31;1224521;75;2928216;-65
2024/03/10 09:36:54;;;;;;;16.85;12.20;;;;;;;11.01;100.00;96641.50;1223925;75;2922358;-65
2024/03/10 09:39:30;;;;;;;17.80;12.60;;;;;;;10.89;100.00;96645.50;1223198;75;2893916;-65
2024/03/10 09:42:03;;;;;;;15.10;11.50;;;;;;;11.46;99.04;96635.81;1224082;75;2925191;-64
2024/03/10 09:44:37;;;;;;;14.40;10.40;;;;;;;11.34;94.40;96636.41;1223917;75;2924077;-63
2024/03/10 09:47:10;;;;;;;12.25;9.05;;;;;;;12.44;89.94;96623.69;1223979;75;2921613;-63
2024/03/10 09:49:47;;;;;;;14.00;10.40;;;;;;;12.25;85.31;96627.09;1223062;75;2916529;-65
2024/03/10 09:52:21;;;;;;;14.20;10.05;;;;;;;12.72;86.51;96634.38;1224465;75;2917377;-66
2024/03/10 09:54:57;;;;;;;13.20;9.95;;;;;;;12.72;84.47;96632.41;1223072;75;2918068;-66
2024/03/10 09:57:31;;;;;;;12.85;9.80;;;;;;;12.75;83.69;96631.38;1223496;75;2915962;-62
2024/03/10 10:00:12;;;;;;;14.65;11.10;;;;;;;12.48;85.37;96630.41;1224199;75;2916261;-65
2024/03/10 10:02:47;;;;;;;11.70;8.70;;;;;;;13.99;79.64;96618.06;1223908;75;2930927;-64
2024/03/10 10:05:29;;;;;;;11.45;7.00;;;;;;;13.02;78.24;96617.09;1223939;75;2916966;-65
2024/03/10 10:08:07;;;;;;;13.30;7.70;;;;;;;12.39;83.45;96611.50;1224503;75;2932485;-65
2024/03/10 10:10:45;;;;;;;8.50;6.60;;;;;;;12.88;82.13;96616.25;1225243;75;2924741;-64
2024/03/10 10:13:26;;;;;;;9.80;6.50;;;;;;;12.30;84.86;96620.81;1224157;75;2916105;-66
2024/03/10 10:15:59;;;;;;;10.05;6.50;;;;;;;12.28;85.42;96606.13;1223426;75;2921240;-65
2024/03/10 10:18:32;;;;;;;8.65;6.15;;;;;;;11.95;85.82;96618.84;1223954;75;2925437;-67
2024/03/10 10:21:07;;;;;;;8.25;5.15;;;;;;;13.28;78.26;96602.81;1223934;75;2937907;-65
2024/03/10 10:23:40;;;;;;;8.20;6.05;;;;;;;14.17;78.91;96600.00;1224108;75;2925913;-67
2024/03/10 10:26:16;;;;;;;8.30;6.65;;;;;;;13.78;76.84;96601.34;1225110;75;2933965;-65
2024/03/10 10:28:49;;;;;;;11.35;7.45;;;;;;;12.48;81.50;96597.44;1224069;75;2927002;-65
2024/03/10 10:31:22;;;;;;;9.85;6.35;;;;;;;13.02;79.48;96598.59;1223427;75;2929961;-67
2024/03/10 10:33:54;;;;;;;8.10;6.35;;;;;;;12.93;79.72;96590.72;1224018;75;2923381;-64
2024/03/10 10:36:27;;;;;;;8.25;6.20;;;;;;;14.16;76.66;96585.50;1223029;75;2927385;-66
2024/03/10 10:39:01;;;;;;;8.65;5.95;;;;;;;13.91;78.13;96584.91;1224066;75;2920614;-65
2024/03/10 10:41:36;;;;;;;8.65;5.30;;;;;;;14.81;72.97;96579.88;1224223;75;2918221;-64
2024/03/10 10:44:09;;;;;;;8.95;6.15;;;;;;;15.35;72.48;96575.75;1224053;75;2930564;-64
2024/03/10 10:46:42;;;;;;;21.70;12.85;;;;;;;14.12;73.12;96581.56;1222654;75;2930348;-63
2024/03/10 10:49:16;;;;;;;30.85;17.20;;;;;;;14.96;71.79;96576.56;1223179;75;2926619;-67
2024/03/10 10:51:52;;;;;;;8.70;5.55;;;;;;;14.69;73.90;96573.81;1225064;75;2847322;-65
2024/03/10 10:54:25;;;;;;;9.45;5.00;;;;;;;15.71;71.22;96561.44;1223608;75;2926445;-65
2024/03/10 10:57:02;;;;;;;7.75;5.05;;;;;;;14.90;71.20;96562.91;1223215;75;2922772;-64
2024/03/10 10:59:34;;;;;;;7.40;4.70;;;;;;;15.14;70.15;96561.91;1223418;75;2924867;-67
2024/03/10 11:02:19;;;;;;;8.00;5.65;;;;;;;14.52;71.28;96562.34;1223579;75;2923590;-65
2024/03/10 11:04:55;;;;;;;10.35;7.25;;;;;;;15.00;71.02;96561.19;1224006;75;2920095;-64
2024/03/10 11:07:32;;;;;;;7.60;4.90;;;;;;;15.33;70.70;96550.72;1224535;75;2920880;-67
2024/03/10 11:10:47;;;;;;;6.40;5.00;;;;;;;15.30;70.84;96547.03;1171986;75;5596814;-65
2024/03/10 11:13:23;;;;;;;9.40;5.70;;;;;;;14.39;71.49;96557.59;1224121;75;2922564;-62
2024/03/10 11:16:09;;;;;;;9.10;4.95;;;;;;;13.87;74.36;96548.69;1222952;75;2927419;-64
2024/03/10 11:18:43;;;;;;;6.10;4.05;;;;;;;13.76;74.91;96549.63;1224708;75;2942586;-66
2024/03/10 11:21:20;;;;;;;5.95;3.40;;;;;;;13.25;78.19;96538.59;1223199;75;2931516;-67
2024/03/10 11:23:55;;;;;;;5.35;3.50;;;;;;;13.20;79.22;96537.44;1223184;75;2942728;-65
2024/03/10 11:26:29;;;;;;;4.85;3.00;;;;;;;13.20;80.96;96536.66;1223278;75;2922706;-66
2024/03/10 11:29:05;;;;;;;6.10;4.35;;;;;;;13.33;79.98;96533.28;1224779;75;2928165;-66
2024/03/10 11:31:42;;;;;;;4.20;3.10;;;;;;;13.10;81.39;96524.56;1225454;75;2921179;-66
2024/03/10 11:34:16;;;;;;;7.90;3.20;;;;;;;12.92;80.89;96526.81;1225297;75;2922824;-65
2024/03/10 11:36:49;;;;;;;7.25;3.70;;;;;;;12.55;83.06;96527.50;1225033;83;2918208;-66
2024/03/10 11:39:24;;;;;;;7.40;3.70;;;;;;;12.44;86.11;96524.88;1224704;75;2918500;-64
2024/03/10 11:41:58;;;;;;;6.30;3.50;;;;;;;12.49;85.20;96518.59;1223788;75;2961862;-65
2024/03/10 11:44:35;;;;;;;7.25;3.10;;;;;;;12.60;83.59;96512.22;1225230;75;2925963;-65
2024/03/10 11:47:19;;;;;;;5.55;2.95;;;;;;;12.26;86.04;96507.84;1225034;75;2916917;-64
2024/03/10 11:49:54;;;;;;;6.45;4.30;;;;;;;12.41;86.99;96512.16;1224604;75;2921641;-64
2024/03/10 11:52:26;;;;;;;7.00;4.35;;;;;;;12.42;84.74;96514.41;1224787;75;2923505;-65
2024/03/10 11:55:10;;;;;;;6.30;4.15;;;;;;;12.57;85.61;96506.50;1225290;75;2917720;-68
2024/03/10 11:57:44;;;;;;;14.10;10.25;;;;;;;12.29;87.85;96509.56;1224939;75;2919591;-65
2024/03/10 12:00:21;;;;;;;12.70;9.95;;;;;;;12.48;89.00;96506.09;1224051;75;2961591;-67